sensor_id;sensor_type;location;lat;lon;timestamp;P1;durP1;ratioP1;P2;durP2;ratioP2
17214;SDS011;8723;51.502;6.918;2024-03-07T00:00:05;64.15;;;53.00;;
17214;SDS011;8723;51.502;6.918;2024-03-07T00:02:39;64.60;;;53.10;;
17214;SDS011;8723;51.502;6.918;2024-03-07T00:05:07;65.13;;;53.28;;
17214;SDS011;8723;51.502;6.918;2024-03-07T00:07:37;65.57;;;53.13;;
17214;SDS011;8723;51.502;6.918;2024-03-07T00:10:06;64.75;;;51.50;;
17214;SDS011;8723;51.502;6.918;2024-03-07T00:12:35;67.75;;;54.17;;
17214;SDS011;8723;51.502;6.918;2024-03-07T00:15:05;69.40;;;55.97;;
17214;SDS011;8723;51.502;6.918;2024-03-07T00:17:33;70.28;;;57.45;;
17214;SDS011;8723;51.502;6.918;2024-03-07T00:20:00;70.22;;;58.17;;
17214;SDS011;8723;51.502;6.918;2024-03-07T00:22:29;76.30;;;59.38;;
17214;SDS011;8723;51.502;6.918;2024-03-07T00:24:57;66.82;;;55.33;;
17214;SDS011;8723;51.502;6.918;2024-03-07T00:27:25;72.88;;;56.40;;
17214;SDS011;8723;51.502;6.918;2024-03-07T00:29:52;69.57;;;55.25;;
17214;SDS011;8723;51.502;6.918;2024-03-07T00:32:20;68.63;;;54.95;;
17214;SDS011;8723;51.502;6.918;2024-03-07T00:34:47;66.43;;;54.88;;
17214;SDS011;8723;51.502;6.918;2024-03-07T00:37:14;68.43;;;54.75;;
17214;SDS011;8723;51.502;6.918;2024-03-07T00:39:41;66.45;;;54.45;;
17214;SDS011;8723;51.502;6.918;2024-03-07T00:42:10;61.78;;;52.60;;
17214;SDS011;8723;51.502;6.918;2024-03-07T00:44:37;62.05;;;51.72;;
17214;SDS011;8723;51.502;6.918;2024-03-07T00:47:04;63.20;;;52.25;;
17214;SDS011;8723;51.502;6.918;2024-03-07T00:49:32;64.43;;;52.75;;
17214;SDS011;8723;51.502;6.918;2024-03-07T00:51:59;61.58;;;51.85;;
17214;SDS011;8723;51.502;6.918;2024-03-07T00:54:27;63.05;;;51.17;;
17214;SDS011;8723;51.502;6.918;2024-03-07T00:56:54;61.15;;;50.88;;
17214;SDS011;8723;51.502;6.918;2024-03-07T00:59:22;62.13;;;51.08;;
17214;SDS011;8723;51.502;6.918;2024-03-07T01:01:50;61.30;;;50.27;;
17214;SDS011;8723;51.502;6.918;2024-03-07T01:04:19;61.67;;;50.73;;
17214;SDS011;8723;51.502;6.918;2024-03-07T01:06:46;59.10;;;49.78;;
17214;SDS011;8723;51.502;6.918;2024-03-07T01:09:13;59.55;;;49.20;;
17214;SDS011;8723;51.502;6.918;2024-03-07T01:11:42;58.22;;;48.58;;
17214;SDS011;8723;51.502;6.918;2024-03-07T01:14:09;59.73;;;48.37;;
17214;SDS011;8723;51.502;6.918;2024-03-07T01:16:38;59.78;;;49.22;;
17214;SDS011;8723;51.502;6.918;2024-03-07T01:19:05;60.27;;;50.03;;
17214;SDS011;8723;51.502;6.918;2024-03-07T01:21:33;59.27;;;47.90;;
17214;SDS011;8723;51.502;6.918;2024-03-07T01:24:00;61.20;;;50.80;;
17214;SDS011;8723;51.502;6.918;2024-03-07T01:26:27;63.05;;;51.03;;
17214;SDS011;8723;51.502;6.918;2024-03-07T01:28:55;59.97;;;51.35;;
17214;SDS011;8723;51.502;6.918;2024-03-07T01:31:23;58.45;;;49.95;;
17214;SDS011;8723;51.502;6.918;2024-03-07T01:33:52;61.88;;;51.83;;
17214;SDS011;8723;51.502;6.918;2024-03-07T01:36:19;61.40;;;49.88;;
17214;SDS011;8723;51.502;6.918;2024-03-07T01:38:46;55.88;;;46.72;;
17214;SDS011;8723;51.502;6.918;2024-03-07T01:41:14;55.15;;;47.10;;
17214;SDS011;8723;51.502;6.918;2024-03-07T01:43:41;53.00;;;47.20;;
17214;SDS011;8723;51.502;6.918;2024-03-07T01:46:08;54.95;;;47.60;;
17214;SDS011;8723;51.502;6.918;2024-03-07T01:48:36;56.42;;;48.92;;
17214;SDS011;8723;51.502;6.918;2024-03-07T01:51:06;54.47;;;47.97;;
17214;SDS011;8723;51.502;6.918;2024-03-07T01:53:34;55.63;;;48.10;;
17214;SDS011;8723;51.502;6.918;2024-03-07T01:56:01;53.70;;;47.90;;
17214;SDS011;8723;51.502;6.918;2024-03-07T01:58:30;56.67;;;47.88;;
17214;SDS011;8723;51.502;6.918;2024-03-07T02:00:57;57.40;;;47.42;;
17214;SDS011;8723;51.502;6.918;2024-03-07T02:03:24;56.90;;;47.75;;
17214;SDS011;8723;51.502;6.918;2024-03-07T02:05:51;52.53;;;46.33;;
17214;SDS011;8723;51.502;6.918;2024-03-07T02:08:20;56.35;;;47.67;;
17214;SDS011;8723;51.502;6.918;2024-03-07T02:10:47;56.08;;;47.88;;
17214;SDS011;8723;51.502;6.918;2024-03-07T02:13:14;59.75;;;49.78;;
17214;SDS011;8723;51.502;6.918;2024-03-07T02:15:41;57.10;;;49.00;;
17214;SDS011;8723;51.502;6.918;2024-03-07T02:18:09;56.97;;;48.47;;
17214;SDS011;8723;51.502;6.918;2024-03-07T02:20:36;58.93;;;48.50;;
17214;SDS011;8723;51.502;6.918;2024-03-07T02:23:04;55.17;;;47.85;;
17214;SDS011;8723;51.502;6.918;2024-03-07T02:25:32;58.05;;;49.72;;
17214;SDS011;8723;51.502;6.918;2024-03-07T02:28:02;56.38;;;48.17;;
17214;SDS011;8723;51.502;6.918;2024-03-07T02:30:30;56.45;;;48.20;;
17214;SDS011;8723;51.502;6.918;2024-03-07T02:32:57;57.57;;;49.37;;
17214;SDS011;8723;51.502;6.918;2024-03-07T02:35:31;56.42;;;46.53;;
17214;SDS011;8723;51.502;6.918;2024-03-07T02:37:59;57.63;;;48.20;;
17214;SDS011;8723;51.502;6.918;2024-03-07T02:40:28;56.92;;;48.22;;
17214;SDS011;8723;51.502;6.918;2024-03-07T02:42:56;55.37;;;48.13;;
17214;SDS011;8723;51.502;6.918;2024-03-07T02:45:25;56.92;;;48.88;;
17214;SDS011;8723;51.502;6.918;2024-03-07T02:47:54;56.17;;;49.40;;
17214;SDS011;8723;51.502;6.918;2024-03-07T02:50:23;56.67;;;48.30;;
17214;SDS011;8723;51.502;6.918;2024-03-07T02:52:51;51.38;;;45.50;;
17214;SDS011;8723;51.502;6.918;2024-03-07T02:55:20;52.70;;;46.08;;
17214;SDS011;8723;51.502;6.918;2024-03-07T02:57:51;54.75;;;46.40;;
17214;SDS011;8723;51.502;6.918;2024-03-07T03:00:22;56.85;;;47.80;;
17214;SDS011;8723;51.502;6.918;2024-03-07T03:02:55;56.17;;;48.30;;
17214;SDS011;8723;51.502;6.918;2024-03-07T03:05:24;52.38;;;45.60;;
17214;SDS011;8723;51.502;6.918;2024-03-07T03:07:53;53.67;;;47.28;;
17214;SDS011;8723;51.502;6.918;2024-03-07T03:10:23;54.03;;;46.57;;
17214;SDS011;8723;51.502;6.918;2024-03-07T03:12:56;53.20;;;46.70;;
17214;SDS011;8723;51.502;6.918;2024-03-07T03:15:26;52.55;;;46.60;;
17214;SDS011;8723;51.502;6.918;2024-03-07T03:17:56;51.78;;;45.80;;
17214;SDS011;8723;51.502;6.918;2024-03-07T03:20:27;50.53;;;45.03;;
17214;SDS011;8723;51.502;6.918;2024-03-07T03:23:00;51.38;;;45.72;;
17214;SDS011;8723;51.502;6.918;2024-03-07T03:25:31;50.40;;;43.87;;
17214;SDS011;8723;51.502;6.918;2024-03-07T03:28:02;50.08;;;44.38;;
17214;SDS011;8723;51.502;6.918;2024-03-07T03:30:31;50.63;;;44.88;;
17214;SDS011;8723;51.502;6.918;2024-03-07T03:33:00;55.65;;;46.40;;
17214;SDS011;8723;51.502;6.918;2024-03-07T03:35:30;51.57;;;45.13;;
17214;SDS011;8723;51.502;6.918;2024-03-07T03:37:59;54.45;;;46.33;;
17214;SDS011;8723;51.502;6.918;2024-03-07T03:40:28;56.42;;;47.75;;
17214;SDS011;8723;51.502;6.918;2024-03-07T03:42:58;56.55;;;46.58;;
17214;SDS011;8723;51.502;6.918;2024-03-07T03:45:29;55.03;;;44.75;;
17214;SDS011;8723;51.502;6.918;2024-03-07T03:47:59;55.70;;;45.53;;
17214;SDS011;8723;51.502;6.918;2024-03-07T03:50:29;55.40;;;46.57;;
17214;SDS011;8723;51.502;6.918;2024-03-07T03:52:58;54.30;;;47.13;;
17214;SDS011;8723;51.502;6.918;2024-03-07T03:55:28;56.60;;;45.90;;
17214;SDS011;8723;51.502;6.918;2024-03-07T03:57:57;51.95;;;44.13;;
17214;SDS011;8723;51.502;6.918;2024-03-07T04:00:25;49.05;;;43.55;;
17214;SDS011;8723;51.502;6.918;2024-03-07T04:02:57;48.57;;;43.27;;
17214;SDS011;8723;51.502;6.918;2024-03-07T04:05:26;47.53;;;42.35;;
17214;SDS011;8723;51.502;6.918;2024-03-07T04:07:56;50.33;;;44.17;;
17214;SDS011;8723;51.502;6.918;2024-03-07T04:10:25;52.10;;;44.78;;
17214;SDS011;8723;51.502;6.918;2024-03-07T04:12:53;50.80;;;44.05;;
17214;SDS011;8723;51.502;6.918;2024-03-07T04:15:22;52.70;;;46.55;;
17214;SDS011;8723;51.502;6.918;2024-03-07T04:17:52;54.40;;;45.70;;
17214;SDS011;8723;51.502;6.918;2024-03-07T04:20:20;55.22;;;46.95;;
17214;SDS011;8723;51.502;6.918;2024-03-07T04:22:47;50.38;;;44.83;;
17214;SDS011;8723;51.502;6.918;2024-03-07T04:25:15;56.55;;;48.00;;
17214;SDS011;8723;51.502;6.918;2024-03-07T04:27:42;55.53;;;48.20;;
17214;SDS011;8723;51.502;6.918;2024-03-07T04:30:09;54.30;;;47.70;;
17214;SDS011;8723;51.502;6.918;2024-03-07T04:32:36;52.38;;;45.60;;
17214;SDS011;8723;51.502;6.918;2024-03-07T04:35:04;49.28;;;43.85;;
17214;SDS011;8723;51.502;6.918;2024-03-07T04:37:34;50.10;;;43.63;;
17214;SDS011;8723;51.502;6.918;2024-03-07T04:40:03;48.90;;;42.67;;
17214;SDS011;8723;51.502;6.918;2024-03-07T04:42:40;55.30;;;46.55;;
17214;SDS011;8723;51.502;6.918;2024-03-07T04:45:07;55.35;;;47.38;;
17214;SDS011;8723;51.502;6.918;2024-03-07T04:47:35;54.78;;;47.25;;
17214;SDS011;8723;51.502;6.918;2024-03-07T04:50:03;56.05;;;47.00;;
17214;SDS011;8723;51.502;6.918;2024-03-07T04:52:30;54.30;;;47.38;;
17214;SDS011;8723;51.502;6.918;2024-03-07T04:54:59;56.40;;;48.67;;
17214;SDS011;8723;51.502;6.918;2024-03-07T04:57:27;54.90;;;47.63;;
17214;SDS011;8723;51.502;6.918;2024-03-07T04:59:54;53.35;;;46.22;;
17214;SDS011;8723;51.502;6.918;2024-03-07T05:02:21;54.72;;;47.42;;
17214;SDS011;8723;51.502;6.918;2024-03-07T05:04:49;52.05;;;45.80;;
17214;SDS011;8723;51.502;6.918;2024-03-07T05:07:17;53.78;;;46.83;;
17214;SDS011;8723;51.502;6.918;2024-03-07T05:09:45;53.28;;;45.85;;
17214;SDS011;8723;51.502;6.918;2024-03-07T05:12:14;50.25;;;43.83;;
17214;SDS011;8723;51.502;6.918;2024-03-07T05:14:41;51.17;;;44.50;;
17214;SDS011;8723;51.502;6.918;2024-03-07T05:17:09;52.15;;;45.17;;
17214;SDS011;8723;51.502;6.918;2024-03-07T05:19:37;56.65;;;47.58;;
17214;SDS011;8723;51.502;6.918;2024-03-07T05:22:04;56.90;;;48.13;;
17214;SDS011;8723;51.502;6.918;2024-03-07T05:24:32;53.90;;;46.53;;
17214;SDS011;8723;51.502;6.918;2024-03-07T05:26:59;53.00;;;47.25;;
17214;SDS011;8723;51.502;6.918;2024-03-07T05:29:28;50.80;;;45.27;;
17214;SDS011;8723;51.502;6.918;2024-03-07T05:31:55;58.22;;;46.03;;
17214;SDS011;8723;51.502;6.918;2024-03-07T05:34:22;52.33;;;46.10;;
17214;SDS011;8723;51.502;6.918;2024-03-07T05:36:49;55.00;;;46.40;;
17214;SDS011;8723;51.502;6.918;2024-03-07T05:39:17;57.20;;;48.53;;
17214;SDS011;8723;51.502;6.918;2024-03-07T05:41:44;51.03;;;45.42;;
17214;SDS011;8723;51.502;6.918;2024-03-07T05:44:11;55.70;;;48.35;;
17214;SDS011;8723;51.502;6.918;2024-03-07T05:46:40;56.33;;;48.47;;
17214;SDS011;8723;51.502;6.918;2024-03-07T05:49:11;55.85;;;48.38;;
17214;SDS011;8723;51.502;6.918;2024-03-07T05:51:38;59.33;;;49.83;;
17214;SDS011;8723;51.502;6.918;2024-03-07T05:54:07;56.42;;;49.17;;
17214;SDS011;8723;51.502;6.918;2024-03-07T05:56:34;56.78;;;49.20;;
17214;SDS011;8723;51.502;6.918;2024-03-07T05:59:01;58.40;;;50.07;;
17214;SDS011;8723;51.502;6.918;2024-03-07T06:01:30;55.72;;;48.90;;
17214;SDS011;8723;51.502;6.918;2024-03-07T06:04:00;57.85;;;49.55;;
17214;SDS011;8723;51.502;6.918;2024-03-07T06:06:28;57.97;;;50.42;;
17214;SDS011;8723;51.502;6.918;2024-03-07T06:08:58;58.25;;;50.20;;
17214;SDS011;8723;51.502;6.918;2024-03-07T06:11:25;56.37;;;48.87;;
17214;SDS011;8723;51.502;6.918;2024-03-07T06:13:52;55.83;;;49.17;;
17214;SDS011;8723;51.502;6.918;2024-03-07T06:16:19;60.33;;;50.83;;
17214;SDS011;8723;51.502;6.918;2024-03-07T06:18:46;59.03;;;50.75;;
17214;SDS011;8723;51.502;6.918;2024-03-07T06:21:14;60.88;;;53.10;;
17214;SDS011;8723;51.502;6.918;2024-03-07T06:23:41;58.22;;;51.85;;
17214;SDS011;8723;51.502;6.918;2024-03-07T06:26:12;61.28;;;53.97;;
17214;SDS011;8723;51.502;6.918;2024-03-07T06:28:41;62.97;;;53.63;;
17214;SDS011;8723;51.502;6.918;2024-03-07T06:31:10;62.33;;;53.93;;
17214;SDS011;8723;51.502;6.918;2024-03-07T06:33:37;61.33;;;53.53;;
17214;SDS011;8723;51.502;6.918;2024-03-07T06:36:04;60.17;;;51.03;;
17214;SDS011;8723;51.502;6.918;2024-03-07T06:38:33;58.70;;;51.85;;
17214;SDS011;8723;51.502;6.918;2024-03-07T06:41:00;61.97;;;55.15;;
17214;SDS011;8723;51.502;6.918;2024-03-07T06:43:27;59.30;;;52.80;;
17214;SDS011;8723;51.502;6.918;2024-03-07T06:45:54;62.65;;;52.70;;
17214;SDS011;8723;51.502;6.918;2024-03-07T06:48:21;61.78;;;52.92;;
17214;SDS011;8723;51.502;6.918;2024-03-07T06:50:49;62.05;;;53.38;;
17214;SDS011;8723;51.502;6.918;2024-03-07T06:53:17;62.78;;;53.72;;
17214;SDS011;8723;51.502;6.918;2024-03-07T06:55:46;60.15;;;52.70;;
17214;SDS011;8723;51.502;6.918;2024-03-07T06:58:16;59.90;;;53.28;;
17214;SDS011;8723;51.502;6.918;2024-03-07T07:00:43;62.33;;;54.08;;
17214;SDS011;8723;51.502;6.918;2024-03-07T07:03:11;60.95;;;52.65;;
17214;SDS011;8723;51.502;6.918;2024-03-07T07:05:39;59.22;;;52.47;;
17214;SDS011;8723;51.502;6.918;2024-03-07T07:08:06;61.08;;;53.38;;
17214;SDS011;8723;51.502;6.918;2024-03-07T07:10:34;55.90;;;49.88;;
17214;SDS011;8723;51.502;6.918;2024-03-07T07:13:03;57.27;;;51.10;;
17214;SDS011;8723;51.502;6.918;2024-03-07T07:15:30;58.35;;;51.97;;
17214;SDS011;8723;51.502;6.918;2024-03-07T07:17:58;56.80;;;50.28;;
17214;SDS011;8723;51.502;6.918;2024-03-07T07:20:27;53.05;;;47.28;;
17214;SDS011;8723;51.502;6.918;2024-03-07T07:22:54;57.20;;;51.08;;
17214;SDS011;8723;51.502;6.918;2024-03-07T07:25:23;58.53;;;52.17;;
17214;SDS011;8723;51.502;6.918;2024-03-07T07:27:52;60.03;;;53.53;;
17214;SDS011;8723;51.502;6.918;2024-03-07T07:30:22;62.22;;;53.33;;
17214;SDS011;8723;51.502;6.918;2024-03-07T07:32:50;60.13;;;53.47;;
17214;SDS011;8723;51.502;6.918;2024-03-07T07:35:18;58.72;;;52.25;;
17214;SDS011;8723;51.502;6.918;2024-03-07T07:37:46;58.60;;;52.22;;
17214;SDS011;8723;51.502;6.918;2024-03-07T07:40:14;57.55;;;51.25;;
17214;SDS011;8723;51.502;6.918;2024-03-07T07:42:43;60.00;;;52.55;;
17214;SDS011;8723;51.502;6.918;2024-03-07T07:45:12;57.65;;;51.42;;
17214;SDS011;8723;51.502;6.918;2024-03-07T07:47:41;55.47;;;49.50;;
17214;SDS011;8723;51.502;6.918;2024-03-07T07:50:08;54.47;;;48.78;;
17214;SDS011;8723;51.502;6.918;2024-03-07T07:52:40;53.80;;;48.10;;
17214;SDS011;8723;51.502;6.918;2024-03-07T07:55:07;53.30;;;47.58;;
17214;SDS011;8723;51.502;6.918;2024-03-07T07:57:39;50.30;;;45.10;;
17214;SDS011;8723;51.502;6.918;2024-03-07T08:00:07;51.05;;;45.70;;
17214;SDS011;8723;51.502;6.918;2024-03-07T08:02:35;49.88;;;44.53;;
17214;SDS011;8723;51.502;6.918;2024-03-07T08:05:03;49.40;;;44.00;;
17214;SDS011;8723;51.502;6.918;2024-03-07T08:07:31;51.90;;;46.28;;
17214;SDS011;8723;51.502;6.918;2024-03-07T08:09:58;52.03;;;46.83;;
17214;SDS011;8723;51.502;6.918;2024-03-07T08:12:25;49.08;;;43.97;;
17214;SDS011;8723;51.502;6.918;2024-03-07T08:14:52;52.45;;;46.95;;
17214;SDS011;8723;51.502;6.918;2024-03-07T08:17:19;52.00;;;46.47;;
17214;SDS011;8723;51.502;6.918;2024-03-07T08:19:47;50.92;;;45.72;;
17214;SDS011;8723;51.502;6.918;2024-03-07T08:22:17;50.20;;;45.13;;
17214;SDS011;8723;51.502;6.918;2024-03-07T08:24:45;50.22;;;45.00;;
17214;SDS011;8723;51.502;6.918;2024-03-07T08:27:12;49.00;;;43.90;;
17214;SDS011;8723;51.502;6.918;2024-03-07T08:29:39;48.80;;;43.72;;
17214;SDS011;8723;51.502;6.918;2024-03-07T08:32:07;57.83;;;51.60;;
17214;SDS011;8723;51.502;6.918;2024-03-07T08:34:34;46.58;;;41.80;;
17214;SDS011;8723;51.502;6.918;2024-03-07T08:37:01;44.97;;;40.38;;
17214;SDS011;8723;51.502;6.918;2024-03-07T08:39:31;46.33;;;41.63;;
17214;SDS011;8723;51.502;6.918;2024-03-07T08:41:58;45.45;;;40.88;;
17214;SDS011;8723;51.502;6.918;2024-03-07T08:44:25;43.35;;;38.90;;
17214;SDS011;8723;51.502;6.918;2024-03-07T08:46:52;44.60;;;40.20;;
17214;SDS011;8723;51.502;6.918;2024-03-07T08:49:19;43.35;;;38.88;;
17214;SDS011;8723;51.502;6.918;2024-03-07T08:51:47;42.45;;;38.10;;
17214;SDS011;8723;51.502;6.918;2024-03-07T08:54:14;42.47;;;38.03;;
17214;SDS011;8723;51.502;6.918;2024-03-07T08:56:43;41.05;;;36.92;;
17214;SDS011;8723;51.502;6.918;2024-03-07T08:59:10;39.90;;;35.95;;
17214;SDS011;8723;51.502;6.918;2024-03-07T09:01:40;31.92;;;28.63;;
17214;SDS011;8723;51.502;6.918;2024-03-07T09:04:09;39.58;;;35.45;;
17214;SDS011;8723;51.502;6.918;2024-03-07T09:06:37;38.28;;;34.40;;
17214;SDS011;8723;51.502;6.918;2024-03-07T09:09:04;40.20;;;36.10;;
17214;SDS011;8723;51.502;6.918;2024-03-07T09:11:34;36.85;;;33.05;;
17214;SDS011;8723;51.502;6.918;2024-03-07T09:14:03;39.72;;;35.53;;
17214;SDS011;8723;51.502;6.918;2024-03-07T09:16:34;36.90;;;33.13;;
17214;SDS011;8723;51.502;6.918;2024-03-07T09:19:01;36.47;;;32.65;;
17214;SDS011;8723;51.502;6.918;2024-03-07T09:21:29;35.75;;;32.28;;
17214;SDS011;8723;51.502;6.918;2024-03-07T09:23:56;39.42;;;35.42;;
17214;SDS011;8723;51.502;6.918;2024-03-07T09:26:23;34.72;;;31.27;;
17214;SDS011;8723;51.502;6.918;2024-03-07T09:28:50;36.33;;;32.53;;
17214;SDS011;8723;51.502;6.918;2024-03-07T09:31:19;38.08;;;34.28;;
17214;SDS011;8723;51.502;6.918;2024-03-07T09:33:46;35.83;;;32.13;;
17214;SDS011;8723;51.502;6.918;2024-03-07T09:36:13;35.80;;;32.20;;
17214;SDS011;8723;51.502;6.918;2024-03-07T09:38:41;35.40;;;31.87;;
17214;SDS011;8723;51.502;6.918;2024-03-07T09:41:08;30.52;;;27.48;;
17214;SDS011;8723;51.502;6.918;2024-03-07T09:43:35;34.78;;;31.23;;
17214;SDS011;8723;51.502;6.918;2024-03-07T09:46:04;34.72;;;31.27;;
17214;SDS011;8723;51.502;6.918;2024-03-07T09:48:33;34.90;;;31.50;;
17214;SDS011;8723;51.502;6.918;2024-03-07T09:51:01;34.47;;;31.08;;
17214;SDS011;8723;51.502;6.918;2024-03-07T09:53:29;34.17;;;30.52;;
17214;SDS011;8723;51.502;6.918;2024-03-07T09:55:57;28.27;;;25.48;;
17214;SDS011;8723;51.502;6.918;2024-03-07T09:58:24;33.03;;;29.60;;
17214;SDS011;8723;51.502;6.918;2024-03-07T10:00:52;33.42;;;30.10;;
17214;SDS011;8723;51.502;6.918;2024-03-07T10:03:20;30.08;;;27.17;;
17214;SDS011;8723;51.502;6.918;2024-03-07T10:05:50;29.80;;;26.90;;
17214;SDS011;8723;51.502;6.918;2024-03-07T10:08:18;30.65;;;27.45;;
17214;SDS011;8723;51.502;6.918;2024-03-07T10:10:49;32.30;;;28.95;;
17214;SDS011;8723;51.502;6.918;2024-03-07T10:13:17;29.70;;;26.80;;
17214;SDS011;8723;51.502;6.918;2024-03-07T10:15:44;29.17;;;26.33;;
17214;SDS011;8723;51.502;6.918;2024-03-07T10:18:12;30.27;;;27.23;;
17214;SDS011;8723;51.502;6.918;2024-03-07T10:20:41;30.50;;;27.35;;
17214;SDS011;8723;51.502;6.918;2024-03-07T10:23:11;29.27;;;26.38;;
17214;SDS011;8723;51.502;6.918;2024-03-07T10:25:38;28.88;;;26.02;;
17214;SDS011;8723;51.502;6.918;2024-03-07T10:28:05;30.10;;;27.10;;
17214;SDS011;8723;51.502;6.918;2024-03-07T10:30:39;29.33;;;26.50;;
17214;SDS011;8723;51.502;6.918;2024-03-07T10:33:06;27.88;;;25.15;;
17214;SDS011;8723;51.502;6.918;2024-03-07T10:35:33;27.75;;;24.95;;
17214;SDS011;8723;51.502;6.918;2024-03-07T10:38:00;28.40;;;25.60;;
17214;SDS011;8723;51.502;6.918;2024-03-07T10:40:32;27.20;;;24.50;;
17214;SDS011;8723;51.502;6.918;2024-03-07T10:43:00;27.52;;;24.92;;
17214;SDS011;8723;51.502;6.918;2024-03-07T10:45:35;28.63;;;25.67;;
17214;SDS011;8723;51.502;6.918;2024-03-07T10:48:05;26.55;;;23.95;;
17214;SDS011;8723;51.502;6.918;2024-03-07T10:50:38;27.45;;;24.85;;
17214;SDS011;8723;51.502;6.918;2024-03-07T10:53:10;28.48;;;25.55;;
17214;SDS011;8723;51.502;6.918;2024-03-07T10:55:47;26.75;;;24.15;;
17214;SDS011;8723;51.502;6.918;2024-03-07T10:58:19;27.02;;;24.48;;
17214;SDS011;8723;51.502;6.918;2024-03-07T11:00:51;26.25;;;23.67;;
17214;SDS011;8723;51.502;6.918;2024-03-07T11:03:21;26.70;;;24.15;;
17214;SDS011;8723;51.502;6.918;2024-03-07T11:05:50;28.05;;;25.20;;
17214;SDS011;8723;51.502;6.918;2024-03-07T11:08:17;26.60;;;24.00;;
17214;SDS011;8723;51.502;6.918;2024-03-07T11:10:47;28.35;;;25.50;;
17214;SDS011;8723;51.502;6.918;2024-03-07T11:13:15;27.10;;;24.60;;
17214;SDS011;8723;51.502;6.918;2024-03-07T11:15:43;27.03;;;24.43;;
17214;SDS011;8723;51.502;6.918;2024-03-07T11:18:11;28.27;;;25.48;;
17214;SDS011;8723;51.502;6.918;2024-03-07T11:20:38;29.48;;;26.58;;
17214;SDS011;8723;51.502;6.918;2024-03-07T11:23:27;27.20;;;24.52;;
17214;SDS011;8723;51.502;6.918;2024-03-07T11:25:56;28.08;;;25.33;;
17214;SDS011;8723;51.502;6.918;2024-03-07T11:28:30;30.38;;;27.42;;
17214;SDS011;8723;51.502;6.918;2024-03-07T11:31:09;28.67;;;26.00;;
17214;SDS011;8723;51.502;6.918;2024-03-07T11:33:37;27.80;;;25.10;;
17214;SDS011;8723;51.502;6.918;2024-03-07T11:36:06;28.20;;;25.50;;
17214;SDS011;8723;51.502;6.918;2024-03-07T11:38:34;25.17;;;22.77;;
17214;SDS011;8723;51.502;6.918;2024-03-07T11:41:04;26.27;;;23.70;;
17214;SDS011;8723;51.502;6.918;2024-03-07T11:43:37;27.93;;;25.27;;
17214;SDS011;8723;51.502;6.918;2024-03-07T11:46:05;27.05;;;24.45;;
17214;SDS011;8723;51.502;6.918;2024-03-07T11:48:38;24.40;;;22.02;;
17214;SDS011;8723;51.502;6.918;2024-03-07T11:51:06;27.00;;;24.40;;
17214;SDS011;8723;51.502;6.918;2024-03-07T11:53:35;29.02;;;26.13;;
17214;SDS011;8723;51.502;6.918;2024-03-07T11:56:04;26.33;;;23.90;;
17214;SDS011;8723;51.502;6.918;2024-03-07T11:58:37;27.33;;;24.73;;
17214;SDS011;8723;51.502;6.918;2024-03-07T12:01:06;25.90;;;23.50;;
17214;SDS011;8723;51.502;6.918;2024-03-07T12:03:36;28.67;;;25.88;;
17214;SDS011;8723;51.502;6.918;2024-03-07T12:06:03;28.17;;;25.48;;
17214;SDS011;8723;51.502;6.918;2024-03-07T12:08:30;27.48;;;24.77;;
17214;SDS011;8723;51.502;6.918;2024-03-07T12:10:57;27.05;;;24.55;;
17214;SDS011;8723;51.502;6.918;2024-03-07T12:13:26;27.85;;;25.17;;
17214;SDS011;8723;51.502;6.918;2024-03-07T12:15:53;26.20;;;23.70;;
17214;SDS011;8723;51.502;6.918;2024-03-07T12:18:23;25.17;;;22.55;;
17214;SDS011;8723;51.502;6.918;2024-03-07T12:20:51;25.40;;;23.00;;
17214;SDS011;8723;51.502;6.918;2024-03-07T12:23:22;25.63;;;23.23;;
17214;SDS011;8723;51.502;6.918;2024-03-07T12:25:58;23.00;;;20.80;;
17214;SDS011;8723;51.502;6.918;2024-03-07T12:28:27;26.40;;;23.92;;
17214;SDS011;8723;51.502;6.918;2024-03-07T12:30:58;25.40;;;22.90;;
17214;SDS011;8723;51.502;6.918;2024-03-07T12:33:27;24.63;;;22.33;;
17214;SDS011;8723;51.502;6.918;2024-03-07T12:35:56;24.50;;;22.20;;
17214;SDS011;8723;51.502;6.918;2024-03-07T12:38:31;24.77;;;22.38;;
17214;SDS011;8723;51.502;6.918;2024-03-07T12:41:01;23.98;;;21.77;;
17214;SDS011;8723;51.502;6.918;2024-03-07T12:43:32;24.77;;;22.33;;
17214;SDS011;8723;51.502;6.918;2024-03-07T12:45:59;24.65;;;22.30;;
17214;SDS011;8723;51.502;6.918;2024-03-07T12:48:26;25.23;;;22.83;;
17214;SDS011;8723;51.502;6.918;2024-03-07T12:50:53;23.73;;;21.53;;
17214;SDS011;8723;51.502;6.918;2024-03-07T12:53:21;26.55;;;23.92;;
17214;SDS011;8723;51.502;6.918;2024-03-07T12:55:49;25.95;;;23.55;;
17214;SDS011;8723;51.502;6.918;2024-03-07T12:58:17;25.70;;;23.30;;
17214;SDS011;8723;51.502;6.918;2024-03-07T13:00:46;23.90;;;21.60;;
17214;SDS011;8723;51.502;6.918;2024-03-07T13:03:13;22.30;;;20.30;;
17214;SDS011;8723;51.502;6.918;2024-03-07T13:05:40;22.55;;;20.45;;
17214;SDS011;8723;51.502;6.918;2024-03-07T13:08:08;23.13;;;20.92;;
17214;SDS011;8723;51.502;6.918;2024-03-07T13:10:36;22.15;;;20.08;;
17214;SDS011;8723;51.502;6.918;2024-03-07T13:13:05;23.08;;;20.88;;
17214;SDS011;8723;51.502;6.918;2024-03-07T13:15:34;22.98;;;20.83;;
17214;SDS011;8723;51.502;6.918;2024-03-07T13:18:05;22.02;;;20.02;;
17214;SDS011;8723;51.502;6.918;2024-03-07T13:20:34;21.65;;;19.65;;
17214;SDS011;8723;51.502;6.918;2024-03-07T13:23:01;22.20;;;20.10;;
17214;SDS011;8723;51.502;6.918;2024-03-07T13:25:29;20.83;;;18.83;;
17214;SDS011;8723;51.502;6.918;2024-03-07T13:27:59;20.90;;;19.00;;
17214;SDS011;8723;51.502;6.918;2024-03-07T13:30:27;20.70;;;18.70;;
17214;SDS011;8723;51.502;6.918;2024-03-07T13:32:55;20.90;;;18.98;;
17214;SDS011;8723;51.502;6.918;2024-03-07T13:35:23;21.80;;;19.70;;
17214;SDS011;8723;51.502;6.918;2024-03-07T13:37:51;21.33;;;19.33;;
17214;SDS011;8723;51.502;6.918;2024-03-07T13:40:20;25.02;;;22.60;;
17214;SDS011;8723;51.502;6.918;2024-03-07T13:42:51;19.55;;;17.85;;
17214;SDS011;8723;51.502;6.918;2024-03-07T13:45:19;19.80;;;18.00;;
17214;SDS011;8723;51.502;6.918;2024-03-07T13:47:47;19.02;;;17.33;;
17214;SDS011;8723;51.502;6.918;2024-03-07T13:50:15;18.95;;;17.17;;
17214;SDS011;8723;51.502;6.918;2024-03-07T13:52:45;18.05;;;16.35;;
17214;SDS011;8723;51.502;6.918;2024-03-07T13:55:30;17.75;;;16.20;;
17214;SDS011;8723;51.502;6.918;2024-03-07T13:57:58;16.38;;;14.93;;
17214;SDS011;8723;51.502;6.918;2024-03-07T14:00:32;17.05;;;15.45;;
17214;SDS011;8723;51.502;6.918;2024-03-07T14:14:34;16.60;;;15.00;;
17214;SDS011;8723;51.502;6.918;2024-03-07T14:20:15;17.17;;;15.47;;
17214;SDS011;8723;51.502;6.918;2024-03-07T14:23:01;16.58;;;14.93;;
17214;SDS011;8723;51.502;6.918;2024-03-07T14:25:43;16.75;;;15.15;;
17214;SDS011;8723;51.502;6.918;2024-03-07T14:28:17;16.75;;;14.93;;
17214;SDS011;8723;51.502;6.918;2024-03-07T14:30:55;16.65;;;15.05;;
17214;SDS011;8723;51.502;6.918;2024-03-07T14:33:25;16.30;;;14.70;;
17214;SDS011;8723;51.502;6.918;2024-03-07T14:36:00;15.38;;;13.88;;
17214;SDS011;8723;51.502;6.918;2024-03-07T14:38:30;15.80;;;14.30;;
17214;SDS011;8723;51.502;6.918;2024-03-07T14:41:06;15.80;;;14.30;;
17214;SDS011;8723;51.502;6.918;2024-03-07T14:43:33;15.57;;;14.07;;
17214;SDS011;8723;51.502;6.918;2024-03-07T14:46:03;14.90;;;13.50;;
17214;SDS011;8723;51.502;6.918;2024-03-07T14:48:30;16.23;;;14.65;;
17214;SDS011;8723;51.502;6.918;2024-03-07T14:50:59;16.77;;;15.18;;
17214;SDS011;8723;51.502;6.918;2024-03-07T14:53:28;14.38;;;12.98;;
17214;SDS011;8723;51.502;6.918;2024-03-07T14:55:55;14.43;;;12.93;;